sensor_id;sensor_type;location;lat;lon;timestamp;P1;durP1;ratioP1;P2;durP2;ratioP2
1382;SDS011;685;47.196;11.880;2023-03-03T00:00:05;3.70;;;2.90;;
1382;SDS011;685;47.196;11.880;2023-03-03T00:02:35;5.77;;;2.83;;
1382;SDS011;685;47.196;11.880;2023-03-03T00:05:01;4.63;;;2.60;;
1382;SDS011;685;47.196;11.880;2023-03-03T00:07:29;4.20;;;3.10;;
1382;SDS011;685;47.196;11.880;2023-03-03T00:09:56;4.57;;;2.60;;
1382;SDS011;685;47.196;11.880;2023-03-03T00:12:23;8.97;;;2.47;;
1382;SDS011;685;47.196;11.880;2023-03-03T00:14:51;3.80;;;2.70;;
1382;SDS011;685;47.196;11.880;2023-03-03T00:17:20;3.40;;;2.63;;
1382;SDS011;685;47.196;11.880;2023-03-03T00:19:50;3.23;;;2.50;;
1382;SDS011;685;47.196;11.880;2023-03-03T00:22:21;3.80;;;2.40;;
1382;SDS011;685;47.196;11.880;2023-03-03T00:24:54;2.20;;;2.00;;
1382;SDS011;685;47.196;11.880;2023-03-03T00:27:24;5.47;;;2.70;;
1382;SDS011;685;47.196;11.880;2023-03-03T00:29:55;6.30;;;2.90;;
1382;SDS011;685;47.196;11.880;2023-03-03T00:32:24;3.83;;;2.40;;
1382;SDS011;685;47.196;11.880;2023-03-03T00:34:54;2.43;;;2.23;;
1382;SDS011;685;47.196;11.880;2023-03-03T00:37:30;4.83;;;2.63;;
1382;SDS011;685;47.196;11.880;2023-03-03T00:40:01;2.83;;;2.57;;
1382;SDS011;685;47.196;11.880;2023-03-03T00:42:41;2.43;;;2.03;;
1382;SDS011;685;47.196;11.880;2023-03-03T00:45:30;6.80;;;2.53;;
1382;SDS011;685;47.196;11.880;2023-03-03T00:48:15;3.97;;;2.40;;
1382;SDS011;685;47.196;11.880;2023-03-03T00:50:49;2.27;;;2.07;;
1382;SDS011;685;47.196;11.880;2023-03-03T00:53:17;4.37;;;2.70;;
1382;SDS011;685;47.196;11.880;2023-03-03T00:55:46;6.60;;;3.00;;
1382;SDS011;685;47.196;11.880;2023-03-03T00:58:14;4.10;;;1.80;;
1382;SDS011;685;47.196;11.880;2023-03-03T01:00:42;2.43;;;2.23;;
1382;SDS011;685;47.196;11.880;2023-03-03T01:03:12;5.80;;;3.67;;
1382;SDS011;685;47.196;11.880;2023-03-03T01:05:40;4.33;;;3.33;;
1382;SDS011;685;47.196;11.880;2023-03-03T01:08:08;4.47;;;2.80;;
1382;SDS011;685;47.196;11.880;2023-03-03T01:10:37;6.87;;;3.30;;
1382;SDS011;685;47.196;11.880;2023-03-03T01:13:07;4.83;;;3.03;;
1382;SDS011;685;47.196;11.880;2023-03-03T01:15:35;2.80;;;2.50;;
1382;SDS011;685;47.196;11.880;2023-03-03T01:18:03;4.50;;;2.90;;
1382;SDS011;685;47.196;11.880;2023-03-03T01:20:30;6.00;;;2.93;;
1382;SDS011;685;47.196;11.880;2023-03-03T01:22:57;4.97;;;2.93;;
1382;SDS011;685;47.196;11.880;2023-03-03T01:25:25;4.07;;;3.57;;
1382;SDS011;685;47.196;11.880;2023-03-03T01:27:53;3.90;;;2.90;;
1382;SDS011;685;47.196;11.880;2023-03-03T01:30:20;2.90;;;2.43;;
1382;SDS011;685;47.196;11.880;2023-03-03T01:32:47;2.60;;;2.40;;
1382;SDS011;685;47.196;11.880;2023-03-03T01:35:14;5.70;;;3.13;;
1382;SDS011;685;47.196;11.880;2023-03-03T01:37:41;4.10;;;2.83;;
1382;SDS011;685;47.196;11.880;2023-03-03T01:40:12;2.87;;;2.20;;
1382;SDS011;685;47.196;11.880;2023-03-03T01:42:42;5.30;;;2.40;;
1382;SDS011;685;47.196;11.880;2023-03-03T01:45:11;4.70;;;2.50;;
1382;SDS011;685;47.196;11.880;2023-03-03T01:47:42;3.47;;;2.37;;
1382;SDS011;685;47.196;11.880;2023-03-03T01:50:13;2.90;;;2.60;;
1382;SDS011;685;47.196;11.880;2023-03-03T01:52:52;4.73;;;3.30;;
1382;SDS011;685;47.196;11.880;2023-03-03T01:55:20;2.90;;;2.27;;
1382;SDS011;685;47.196;11.880;2023-03-03T01:57:55;3.43;;;2.40;;
1382;SDS011;685;47.196;11.880;2023-03-03T02:00:25;2.77;;;1.93;;
1382;SDS011;685;47.196;11.880;2023-03-03T02:02:52;3.60;;;2.13;;
1382;SDS011;685;47.196;11.880;2023-03-03T02:05:20;3.17;;;2.53;;
1382;SDS011;685;47.196;11.880;2023-03-03T02:07:48;2.10;;;1.50;;
1382;SDS011;685;47.196;11.880;2023-03-03T02:10:16;4.67;;;2.80;;
1382;SDS011;685;47.196;11.880;2023-03-03T02:12:47;2.60;;;2.23;;
1382;SDS011;685;47.196;11.880;2023-03-03T02:15:18;3.73;;;1.93;;
1382;SDS011;685;47.196;11.880;2023-03-03T02:17:47;2.37;;;2.17;;
1382;SDS011;685;47.196;11.880;2023-03-03T02:20:17;1.70;;;1.57;;
1382;SDS011;685;47.196;11.880;2023-03-03T02:22:54;2.50;;;2.10;;
1382;SDS011;685;47.196;11.880;2023-03-03T02:25:26;3.80;;;2.10;;
1382;SDS011;685;47.196;11.880;2023-03-03T02:27:58;5.07;;;2.23;;
1382;SDS011;685;47.196;11.880;2023-03-03T02:30:25;4.13;;;2.60;;
1382;SDS011;685;47.196;11.880;2023-03-03T02:32:52;4.07;;;2.23;;
1382;SDS011;685;47.196;11.880;2023-03-03T02:35:30;5.87;;;2.80;;
1382;SDS011;685;47.196;11.880;2023-03-03T02:38:01;5.33;;;2.63;;
1382;SDS011;685;47.196;11.880;2023-03-03T02:40:35;2.87;;;2.40;;
1382;SDS011;685;47.196;11.880;2023-03-03T02:43:08;3.73;;;2.27;;
1382;SDS011;685;47.196;11.880;2023-03-03T02:45:40;2.43;;;2.10;;
1382;SDS011;685;47.196;11.880;2023-03-03T02:48:09;5.60;;;2.20;;
1382;SDS011;685;47.196;11.880;2023-03-03T02:50:35;2.50;;;1.83;;
1382;SDS011;685;47.196;11.880;2023-03-03T02:53:02;2.30;;;1.40;;
1382;SDS011;685;47.196;11.880;2023-03-03T02:55:29;2.50;;;1.77;;
1382;SDS011;685;47.196;11.880;2023-03-03T02:57:56;2.10;;;1.50;;
1382;SDS011;685;47.196;11.880;2023-03-03T03:00:24;2.40;;;1.67;;
1382;SDS011;685;47.196;11.880;2023-03-03T03:02:51;4.07;;;1.50;;
1382;SDS011;685;47.196;11.880;2023-03-03T03:05:18;2.73;;;1.90;;
1382;SDS011;685;47.196;11.880;2023-03-03T03:07:45;2.07;;;1.87;;
1382;SDS011;685;47.196;11.880;2023-03-03T03:10:12;4.70;;;1.90;;
1382;SDS011;685;47.196;11.880;2023-03-03T03:12:39;2.77;;;2.07;;
1382;SDS011;685;47.196;11.880;2023-03-03T03:15:07;1.80;;;1.63;;
1382;SDS011;685;47.196;11.880;2023-03-03T03:17:36;3.23;;;1.90;;
1382;SDS011;685;47.196;11.880;2023-03-03T03:20:04;4.60;;;2.30;;
1382;SDS011;685;47.196;11.880;2023-03-03T03:22:31;4.07;;;1.90;;
1382;SDS011;685;47.196;11.880;2023-03-03T03:24:58;2.40;;;2.20;;
1382;SDS011;685;47.196;11.880;2023-03-03T03:27:25;4.43;;;1.97;;
1382;SDS011;685;47.196;11.880;2023-03-03T03:29:52;3.30;;;2.00;;
1382;SDS011;685;47.196;11.880;2023-03-03T03:32:19;3.00;;;2.50;;
1382;SDS011;685;47.196;11.880;2023-03-03T03:34:47;3.37;;;2.97;;
1382;SDS011;685;47.196;11.880;2023-03-03T03:37:14;3.40;;;2.20;;
1382;SDS011;685;47.196;11.880;2023-03-03T03:39:41;7.17;;;2.50;;
1382;SDS011;685;47.196;11.880;2023-03-03T03:42:08;5.13;;;2.73;;
1382;SDS011;685;47.196;11.880;2023-03-03T03:44:35;4.23;;;3.10;;
1382;SDS011;685;47.196;11.880;2023-03-03T03:47:02;4.60;;;2.47;;
1382;SDS011;685;47.196;11.880;2023-03-03T03:49:29;3.77;;;2.00;;
1382;SDS011;685;47.196;11.880;2023-03-03T03:51:57;2.40;;;1.67;;
1382;SDS011;685;47.196;11.880;2023-03-03T03:54:24;3.03;;;1.90;;
1382;SDS011;685;47.196;11.880;2023-03-03T03:56:51;4.57;;;2.53;;
1382;SDS011;685;47.196;11.880;2023-03-03T03:59:18;4.20;;;2.70;;
1382;SDS011;685;47.196;11.880;2023-03-03T04:01:45;4.00;;;2.00;;
1382;SDS011;685;47.196;11.880;2023-03-03T04:04:14;4.80;;;3.03;;
1382;SDS011;685;47.196;11.880;2023-03-03T04:06:41;4.47;;;3.90;;
1382;SDS011;685;47.196;11.880;2023-03-03T04:09:09;3.40;;;2.93;;
1382;SDS011;685;47.196;11.880;2023-03-03T04:11:36;3.70;;;3.30;;
1382;SDS011;685;47.196;11.880;2023-03-03T04:14:03;3.60;;;3.10;;
1382;SDS011;685;47.196;11.880;2023-03-03T04:16:30;3.90;;;3.60;;
1382;SDS011;685;47.196;11.880;2023-03-03T04:18:57;4.00;;;3.60;;
1382;SDS011;685;47.196;11.880;2023-03-03T04:21:24;3.97;;;3.57;;
1382;SDS011;685;47.196;11.880;2023-03-03T04:23:51;3.90;;;3.50;;
1382;SDS011;685;47.196;11.880;2023-03-03T04:26:20;2.90;;;2.70;;
1382;SDS011;685;47.196;11.880;2023-03-03T04:28:47;3.10;;;1.87;;
1382;SDS011;685;47.196;11.880;2023-03-03T04:31:14;3.93;;;2.20;;
1382;SDS011;685;47.196;11.880;2023-03-03T04:33:41;5.73;;;2.43;;
1382;SDS011;685;47.196;11.880;2023-03-03T04:36:08;4.37;;;2.50;;
1382;SDS011;685;47.196;11.880;2023-03-03T04:38:34;4.83;;;2.40;;
1382;SDS011;685;47.196;11.880;2023-03-03T04:41:01;3.83;;;3.40;;
1382;SDS011;685;47.196;11.880;2023-03-03T04:43:30;4.40;;;3.60;;
1382;SDS011;685;47.196;11.880;2023-03-03T04:45:57;5.83;;;4.77;;
1382;SDS011;685;47.196;11.880;2023-03-03T04:48:24;5.10;;;3.13;;
1382;SDS011;685;47.196;11.880;2023-03-03T04:50:51;4.23;;;3.83;;
1382;SDS011;685;47.196;11.880;2023-03-03T04:53:17;5.80;;;4.30;;
1382;SDS011;685;47.196;11.880;2023-03-03T04:55:44;4.10;;;2.90;;
1382;SDS011;685;47.196;11.880;2023-03-03T04:58:11;4.07;;;2.90;;
1382;SDS011;685;47.196;11.880;2023-03-03T05:00:41;3.23;;;2.93;;
1382;SDS011;685;47.196;11.880;2023-03-03T05:03:09;3.97;;;2.57;;
1382;SDS011;685;47.196;11.880;2023-03-03T05:05:36;4.77;;;2.70;;
1382;SDS011;685;47.196;11.880;2023-03-03T05:08:04;2.80;;;2.07;;
1382;SDS011;685;47.196;11.880;2023-03-03T05:10:31;2.57;;;1.90;;
1382;SDS011;685;47.196;11.880;2023-03-03T05:12:58;3.03;;;2.00;;
1382;SDS011;685;47.196;11.880;2023-03-03T05:15:25;4.70;;;1.97;;
1382;SDS011;685;47.196;11.880;2023-03-03T05:17:53;3.17;;;2.30;;
1382;SDS011;685;47.196;11.880;2023-03-03T05:20:21;2.60;;;2.10;;
1382;SDS011;685;47.196;11.880;2023-03-03T05:22:48;3.00;;;1.97;;
1382;SDS011;685;47.196;11.880;2023-03-03T05:25:15;3.20;;;2.90;;
1382;SDS011;685;47.196;11.880;2023-03-03T05:27:42;3.60;;;2.50;;
1382;SDS011;685;47.196;11.880;2023-03-03T05:30:10;2.67;;;2.00;;
1382;SDS011;685;47.196;11.880;2023-03-03T05:32:38;3.20;;;1.90;;
1382;SDS011;685;47.196;11.880;2023-03-03T05:35:06;3.20;;;2.33;;
1382;SDS011;685;47.196;11.880;2023-03-03T05:37:33;5.03;;;1.80;;
1382;SDS011;685;47.196;11.880;2023-03-03T05:40:00;3.60;;;2.20;;
1382;SDS011;685;47.196;11.880;2023-03-03T05:42:28;3.83;;;2.07;;
1382;SDS011;685;47.196;11.880;2023-03-03T05:44:55;5.00;;;2.53;;
1382;SDS011;685;47.196;11.880;2023-03-03T05:47:22;3.10;;;2.80;;
1382;SDS011;685;47.196;11.880;2023-03-03T05:49:49;3.67;;;2.33;;
1382;SDS011;685;47.196;11.880;2023-03-03T05:52:17;2.33;;;2.10;;
1382;SDS011;685;47.196;11.880;2023-03-03T05:54:44;5.83;;;2.53;;
1382;SDS011;685;47.196;11.880;2023-03-03T05:57:11;6.13;;;2.17;;
1382;SDS011;685;47.196;11.880;2023-03-03T05:59:38;4.60;;;2.53;;
1382;SDS011;685;47.196;11.880;2023-03-03T06:02:05;5.07;;;2.70;;
1382;SDS011;685;47.196;11.880;2023-03-03T06:04:32;5.87;;;3.37;;
1382;SDS011;685;47.196;11.880;2023-03-03T06:06:59;2.87;;;2.53;;
1382;SDS011;685;47.196;11.880;2023-03-03T06:09:27;6.80;;;2.00;;
1382;SDS011;685;47.196;11.880;2023-03-03T06:11:54;2.63;;;1.83;;
1382;SDS011;685;47.196;11.880;2023-03-03T06:14:21;3.50;;;2.80;;
1382;SDS011;685;47.196;11.880;2023-03-03T06:16:48;3.07;;;2.50;;
1382;SDS011;685;47.196;11.880;2023-03-03T06:19:15;5.73;;;2.30;;
1382;SDS011;685;47.196;11.880;2023-03-03T06:21:42;2.60;;;1.87;;
1382;SDS011;685;47.196;11.880;2023-03-03T06:24:09;3.90;;;2.70;;
1382;SDS011;685;47.196;11.880;2023-03-03T06:26:37;3.20;;;2.83;;
1382;SDS011;685;47.196;11.880;2023-03-03T06:29:04;4.00;;;3.07;;
1382;SDS011;685;47.196;11.880;2023-03-03T06:31:31;3.70;;;3.40;;
1382;SDS011;685;47.196;11.880;2023-03-03T06:33:58;5.53;;;2.70;;
1382;SDS011;685;47.196;11.880;2023-03-03T06:36:24;2.30;;;2.10;;
1382;SDS011;685;47.196;11.880;2023-03-03T06:38:52;4.60;;;2.67;;
1382;SDS011;685;47.196;11.880;2023-03-03T06:41:19;3.57;;;3.20;;
1382;SDS011;685;47.196;11.880;2023-03-03T06:43:47;6.30;;;4.40;;
1382;SDS011;685;47.196;11.880;2023-03-03T06:46:14;5.63;;;4.17;;
1382;SDS011;685;47.196;11.880;2023-03-03T06:48:41;4.77;;;3.40;;
1382;SDS011;685;47.196;11.880;2023-03-03T06:51:13;6.50;;;4.80;;
1382;SDS011;685;47.196;11.880;2023-03-03T06:53:47;5.13;;;3.67;;
1382;SDS011;685;47.196;11.880;2023-03-03T06:56:15;8.30;;;3.53;;
1382;SDS011;685;47.196;11.880;2023-03-03T06:58:43;6.67;;;4.87;;
1382;SDS011;685;47.196;11.880;2023-03-03T07:01:12;6.33;;;4.40;;
1382;SDS011;685;47.196;11.880;2023-03-03T07:03:41;5.43;;;3.77;;
1382;SDS011;685;47.196;11.880;2023-03-03T07:06:13;5.50;;;3.80;;
1382;SDS011;685;47.196;11.880;2023-03-03T07:08:45;17.33;;;12.47;;
1382;SDS011;685;47.196;11.880;2023-03-03T07:11:13;18.77;;;12.67;;
1382;SDS011;685;47.196;11.880;2023-03-03T07:13:44;21.30;;;15.57;;
1382;SDS011;685;47.196;11.880;2023-03-03T07:16:14;18.57;;;16.67;;
1382;SDS011;685;47.196;11.880;2023-03-03T07:18:43;12.57;;;11.27;;
1382;SDS011;685;47.196;11.880;2023-03-03T07:21:16;12.30;;;9.13;;
1382;SDS011;685;47.196;11.880;2023-03-03T07:23:45;9.33;;;8.40;;
1382;SDS011;685;47.196;11.880;2023-03-03T07:26:14;9.43;;;7.40;;
1382;SDS011;685;47.196;11.880;2023-03-03T07:28:43;10.00;;;6.27;;
1382;SDS011;685;47.196;11.880;2023-03-03T07:31:19;6.83;;;5.00;;
1382;SDS011;685;47.196;11.880;2023-03-03T07:33:53;5.97;;;5.00;;
1382;SDS011;685;47.196;11.880;2023-03-03T07:36:22;11.00;;;8.80;;
1382;SDS011;685;47.196;11.880;2023-03-03T07:38:53;15.90;;;10.00;;
1382;SDS011;685;47.196;11.880;2023-03-03T07:41:22;13.40;;;8.00;;
1382;SDS011;685;47.196;11.880;2023-03-03T07:43:49;12.77;;;9.00;;
1382;SDS011;685;47.196;11.880;2023-03-03T07:46:24;12.80;;;7.40;;
1382;SDS011;685;47.196;11.880;2023-03-03T07:48:54;8.63;;;6.90;;
1382;SDS011;685;47.196;11.880;2023-03-03T07:51:23;9.30;;;6.87;;
1382;SDS011;685;47.196;11.880;2023-03-03T07:53:53;9.53;;;7.70;;
1382;SDS011;685;47.196;11.880;2023-03-03T07:56:27;10.07;;;7.53;;
1382;SDS011;685;47.196;11.880;2023-03-03T07:58:55;9.23;;;7.37;;
1382;SDS011;685;47.196;11.880;2023-03-03T08:01:30;8.10;;;6.50;;
1382;SDS011;685;47.196;11.880;2023-03-03T08:04:08;8.67;;;6.70;;
1382;SDS011;685;47.196;11.880;2023-03-03T08:06:43;8.00;;;6.77;;
1382;SDS011;685;47.196;11.880;2023-03-03T08:09:21;12.40;;;8.57;;
1382;SDS011;685;47.196;11.880;2023-03-03T08:12:12;9.53;;;6.60;;
1382;SDS011;685;47.196;11.880;2023-03-03T08:14:49;10.00;;;6.37;;
1382;SDS011;685;47.196;11.880;2023-03-03T08:17:20;10.20;;;6.27;;
1382;SDS011;685;47.196;11.880;2023-03-03T08:19:48;7.30;;;5.70;;
1382;SDS011;685;47.196;11.880;2023-03-03T08:22:18;8.57;;;6.20;;
1382;SDS011;685;47.196;11.880;2023-03-03T08:24:50;6.03;;;5.43;;
1382;SDS011;685;47.196;11.880;2023-03-03T08:27:16;7.40;;;4.97;;
1382;SDS011;685;47.196;11.880;2023-03-03T08:29:43;6.43;;;5.70;;
1382;SDS011;685;47.196;11.880;2023-03-03T08:32:10;9.23;;;5.70;;
1382;SDS011;685;47.196;11.880;2023-03-03T08:34:38;16.90;;;13.03;;
1382;SDS011;685;47.196;11.880;2023-03-03T08:37:05;9.77;;;8.30;;
1382;SDS011;685;47.196;11.880;2023-03-03T08:39:32;7.03;;;5.47;;
1382;SDS011;685;47.196;11.880;2023-03-03T08:41:59;9.13;;;5.30;;
1382;SDS011;685;47.196;11.880;2023-03-03T08:44:26;6.73;;;5.13;;
1382;SDS011;685;47.196;11.880;2023-03-03T08:46:53;10.67;;;5.57;;
1382;SDS011;685;47.196;11.880;2023-03-03T08:49:35;8.00;;;4.93;;
1382;SDS011;685;47.196;11.880;2023-03-03T08:52:03;6.60;;;4.43;;
1382;SDS011;685;47.196;11.880;2023-03-03T08:54:30;8.53;;;5.73;;
1382;SDS011;685;47.196;11.880;2023-03-03T08:56:58;10.63;;;6.83;;
1382;SDS011;685;47.196;11.880;2023-03-03T08:59:25;7.40;;;5.93;;
1382;SDS011;685;47.196;11.880;2023-03-03T09:01:51;9.03;;;7.20;;
1382;SDS011;685;47.196;11.880;2023-03-03T09:04:19;7.13;;;5.93;;
1382;SDS011;685;47.196;11.880;2023-03-03T09:06:46;11.83;;;6.20;;
1382;SDS011;685;47.196;11.880;2023-03-03T09:09:14;15.77;;;6.23;;
1382;SDS011;685;47.196;11.880;2023-03-03T09:11:41;8.33;;;5.90;;
1382;SDS011;685;47.196;11.880;2023-03-03T09:14:09;7.60;;;5.70;;
1382;SDS011;685;47.196;11.880;2023-03-03T09:16:38;6.50;;;5.10;;
1382;SDS011;685;47.196;11.880;2023-03-03T09:19:14;10.20;;;5.83;;
1382;SDS011;685;47.196;11.880;2023-03-03T09:21:44;7.60;;;5.57;;
1382;SDS011;685;47.196;11.880;2023-03-03T09:24:15;7.80;;;5.47;;
1382;SDS011;685;47.196;11.880;2023-03-03T09:26:49;10.00;;;5.70;;
1382;SDS011;685;47.196;11.880;2023-03-03T09:29:18;5.13;;;4.60;;
1382;SDS011;685;47.196;11.880;2023-03-03T09:31:50;9.87;;;5.70;;
1382;SDS011;685;47.196;11.880;2023-03-03T09:34:21;8.30;;;6.50;;
1382;SDS011;685;47.196;11.880;2023-03-03T09:36:52;9.43;;;5.90;;
1382;SDS011;685;47.196;11.880;2023-03-03T09:39:22;7.80;;;5.57;;
1382;SDS011;685;47.196;11.880;2023-03-03T09:45:07;9.80;;;5.03;;
1382;SDS011;685;47.196;11.880;2023-03-03T09:48:08;8.03;;;4.60;;
1382;SDS011;685;47.196;11.880;2023-03-03T09:51:01;6.27;;;4.77;;
1382;SDS011;685;47.196;11.880;2023-03-03T09:53:41;8.40;;;5.60;;
1382;SDS011;685;47.196;11.880;2023-03-03T09:56:27;7.80;;;5.40;;
1382;SDS011;685;47.196;11.880;2023-03-03T09:59:05;4.77;;;4.37;;
1382;SDS011;685;47.196;11.880;2023-03-03T10:01:49;14.40;;;6.50;;
1382;SDS011;685;47.196;11.880;2023-03-03T10:07:32;10.80;;;6.27;;
1382;SDS011;685;47.196;11.880;2023-03-03T10:10:12;9.63;;;5.80;;
1382;SDS011;685;47.196;11.880;2023-03-03T10:12:49;9.20;;;6.00;;
1382;SDS011;685;47.196;11.880;2023-03-03T10:15:28;8.10;;;5.47;;
1382;SDS011;685;47.196;11.880;2023-03-03T10:18:12;9.40;;;6.50;;
1382;SDS011;685;47.196;11.880;2023-03-03T10:20:53;9.00;;;7.20;;
1382;SDS011;685;47.196;11.880;2023-03-03T10:23:34;8.93;;;6.00;;
1382;SDS011;685;47.196;11.880;2023-03-03T10:26:20;8.60;;;6.07;;
1382;SDS011;685;47.196;11.880;2023-03-03T10:29:00;7.47;;;6.40;;
1382;SDS011;685;47.196;11.880;2023-03-03T10:31:39;7.93;;;6.07;;
1382;SDS011;685;47.196;11.880;2023-03-03T10:34:26;9.67;;;8.67;;
1382;SDS011;685;47.196;11.880;2023-03-03T10:37:07;9.57;;;6.53;;
1382;SDS011;685;47.196;11.880;2023-03-03T10:39:48;7.80;;;6.13;;
1382;SDS011;685;47.196;11.880;2023-03-03T10:42:26;9.80;;;6.97;;
1382;SDS011;685;47.196;11.880;2023-03-03T10:45:17;9.37;;;6.50;;
1382;SDS011;685;47.196;11.880;2023-03-03T10:48:04;11.43;;;7.50;;
1382;SDS011;685;47.196;11.880;2023-03-03T10:50:53;8.13;;;6.93;;
1382;SDS011;685;47.196;11.880;2023-03-03T10:53:26;12.23;;;7.80;;
1382;SDS011;685;47.196;11.880;2023-03-03T10:56:08;10.03;;;7.67;;
1382;SDS011;685;47.196;11.880;2023-03-03T10:58:53;8.63;;;7.27;;
1382;SDS011;685;47.196;11.880;2023-03-03T11:01:32;9.90;;;7.33;;
1382;SDS011;685;47.196;11.880;2023-03-03T11:04:28;13.57;;;8.38;;
1382;SDS011;685;47.196;11.880;2023-03-03T11:07:13;10.10;;;7.80;;
1382;SDS011;685;47.196;11.880;2023-03-03T11:09:51;10.30;;;7.10;;
1382;SDS011;685;47.196;11.880;2023-03-03T11:12:41;11.20;;;7.77;;
1382;SDS011;685;47.196;11.880;2023-03-03T11:15:22;13.50;;;8.60;;
1382;SDS011;685;47.196;11.880;2023-03-03T11:18:05;11.43;;;8.13;;
1382;SDS011;685;47.196;11.880;2023-03-03T11:20:41;10.67;;;9.07;;
1382;SDS011;685;47.196;11.880;2023-03-03T11:23:23;10.70;;;8.93;;
1382;SDS011;685;47.196;11.880;2023-03-03T11:26:08;10.43;;;8.73;;
1382;SDS011;685;47.196;11.880;2023-03-03T11:28:45;10.30;;;8.10;;
1382;SDS011;685;47.196;11.880;2023-03-03T11:31:25;17.50;;;11.10;;
1382;SDS011;685;47.196;11.880;2023-03-03T11:33:59;10.90;;;9.17;;
1382;SDS011;685;47.196;11.880;2023-03-03T11:36:33;17.07;;;10.17;;
1382;SDS011;685;47.196;11.880;2023-03-03T11:39:04;11.40;;;8.33;;
1382;SDS011;685;47.196;11.880;2023-03-03T11:41:35;14.80;;;9.57;;
1382;SDS011;685;47.196;11.880;2023-03-03T11:44:10;11.50;;;9.23;;
1382;SDS011;685;47.196;11.880;2023-03-03T11:46:47;13.30;;;8.70;;
1382;SDS011;685;47.196;11.880;2023-03-03T11:49:19;14.67;;;9.80;;
1382;SDS011;685;47.196;11.880;2023-03-03T11:51:53;17.00;;;9.63;;
1382;SDS011;685;47.196;11.880;2023-03-03T11:54:27;12.30;;;10.47;;
1382;SDS011;685;47.196;11.880;2023-03-03T11:56:58;18.73;;;10.90;;
1382;SDS011;685;47.196;11.880;2023-03-03T12:05:40;12.30;;;9.30;;
1382;SDS011;685;47.196;11.880;2023-03-03T12:08:19;13.17;;;10.67;;
1382;SDS011;685;47.196;11.880;2023-03-03T12:10:56;13.80;;;10.57;;
1382;SDS011;685;47.196;11.880;2023-03-03T12:13:34;13.77;;;10.47;;
1382;SDS011;685;47.196;11.880;2023-03-03T12:16:10;13.13;;;10.10;;
1382;SDS011;685;47.196;11.880;2023-03-03T12:18:44;15.70;;;10.20;;
1382;SDS011;685;47.196;11.880;2023-03-03T12:21:28;16.40;;;10.40;;
1382;SDS011;685;47.196;11.880;2023-03-03T12:24:16;15.10;;;11.37;;
1382;SDS011;685;47.196;11.880;2023-03-03T12:26:58;15.87;;;11.80;;
1382;SDS011;685;47.196;11.880;2023-03-03T12:29:36;16.77;;;11.53;;
1382;SDS011;685;47.196;11.880;2023-03-03T12:32:14;20.67;;;11.40;;
1382;SDS011;685;47.196;11.880;2023-03-03T12:34:51;15.60;;;10.50;;
1382;SDS011;685;47.196;11.880;2023-03-03T12:37:39;14.80;;;11.37;;
1382;SDS011;685;47.196;11.880;2023-03-03T12:40:15;23.50;;;12.47;;
1382;SDS011;685;47.196;11.880;2023-03-03T12:42:50;15.10;;;10.93;;
1382;SDS011;685;47.196;11.880;2023-03-03T12:45:33;15.83;;;11.87;;
1382;SDS011;685;47.196;11.880;2023-03-03T12:48:07;13.27;;;10.20;;
1382;SDS011;685;47.196;11.880;2023-03-03T12:50:41;15.87;;;9.80;;
1382;SDS011;685;47.196;11.880;2023-03-03T12:53:24;21.23;;;11.23;;
1382;SDS011;685;47.196;11.880;2023-03-03T12:56:05;14.63;;;11.10;;
1382;SDS011;685;47.196;11.880;2023-03-03T12:58:36;14.20;;;12.00;;
1382;SDS011;685;47.196;11.880;2023-03-03T13:04:02;16.03;;;11.67;;
1382;SDS011;685;47.196;11.880;2023-03-03T13:06:34;23.30;;;12.73;;
1382;SDS011;685;47.196;11.880;2023-03-03T13:09:14;15.37;;;10.63;;
1382;SDS011;685;47.196;11.880;2023-03-03T13:11:54;15.50;;;11.53;;
1382;SDS011;685;47.196;11.880;2023-03-03T13:14:36;16.40;;;11.70;;
1382;SDS011;685;47.196;11.880;2023-03-03T13:17:14;19.10;;;12.90;;
1382;SDS011;685;47.196;11.880;2023-03-03T13:19:45;16.77;;;11.60;;
1382;SDS011;685;47.196;11.880;2023-03-03T13:22:19;12.40;;;10.10;;
1382;SDS011;685;47.196;11.880;2023-03-03T13:24:59;20.47;;;12.13;;
1382;SDS011;685;47.196;11.880;2023-03-03T13:27:31;18.77;;;12.63;;
1382;SDS011;685;47.196;11.880;2023-03-03T13:30:07;21.33;;;12.17;;
1382;SDS011;685;47.196;11.880;2023-03-03T13:32:42;18.93;;;12.00;;
1382;SDS011;685;47.196;11.880;2023-03-03T13:35:17;16.63;;;11.40;;
1382;SDS011;685;47.196;11.880;2023-03-03T13:37:55;16.10;;;11.03;;
1382;SDS011;685;47.196;11.880;2023-03-03T13:40:26;17.37;;;11.87;;
1382;SDS011;685;47.196;11.880;2023-03-03T13:42:58;17.93;;;11.70;;
1382;SDS011;685;47.196;11.880;2023-03-03T13:45:29;16.87;;;11.47;;
1382;SDS011;685;47.196;11.880;2023-03-03T13:48:04;16.73;;;12.07;;
1382;SDS011;685;47.196;11.880;2023-03-03T13:50:39;17.30;;;11.63;;
1382;SDS011;685;47.196;11.880;2023-03-03T13:53:17;21.13;;;11.80;;
1382;SDS011;685;47.196;11.880;2023-03-03T13:56:01;18.73;;;12.90;;
1382;SDS011;685;47.196;11.880;2023-03-03T13:58:39;16.93;;;12.60;;
1382;SDS011;685;47.196;11.880;2023-03-03T14:01:15;19.80;;;12.47;;
1382;SDS011;685;47.196;11.880;2023-03-03T14:03:51;20.60;;;12.80;;
1382;SDS011;685;47.196;11.880;2023-03-03T14:06:23;17.43;;;13.03;;
1382;SDS011;685;47.196;11.880;2023-03-03T14:08:59;15.27;;;12.50;;
1382;SDS011;685;47.196;11.880;2023-03-03T14:11:47;19.90;;;13.77;;
1382;SDS011;685;47.196;11.880;2023-03-03T14:14:31;20.53;;;13.50;;
1382;SDS011;685;47.196;11.880;2023-03-03T14:17:08;19.97;;;15.20;;
1382;SDS011;685;47.196;11.880;2023-03-03T14:19:43;18.70;;;13.60;;
1382;SDS011;685;47.196;11.880;2023-03-03T14:22:15;20.73;;;12.90;;
1382;SDS011;685;47.196;11.880;2023-03-03T14:25:01;20.50;;;12.93;;
1382;SDS011;685;47.196;11.880;2023-03-03T14:27:35;19.20;;;13.80;;
1382;SDS011;685;47.196;11.880;2023-03-03T14:30:24;21.13;;;14.97;;
1382;SDS011;685;47.196;11.880;2023-03-03T14:33:04;20.90;;;13.77;;
1382;SDS011;685;47.196;11.880;2023-03-03T14:35:49;18.40;;;13.63;;
1382;SDS011;685;47.196;11.880;2023-03-03T14:38:34;22.60;;;13.57;;
1382;SDS011;685;47.196;11.880;2023-03-03T14:41:11;18.47;;;14.37;;
1382;SDS011;685;47.196;11.880;2023-03-03T14:43:43;20.83;;;14.27;;
1382;SDS011;685;47.196;11.880;2023-03-03T14:46:25;18.10;;;13.60;;
1382;SDS011;685;47.196;11.880;2023-03-03T14:49:04;19.50;;;12.50;;
1382;SDS011;685;47.196;11.880;2023-03-03T14:51:39;20.40;;;13.03;;
1382;SDS011;685;47.196;11.880;2023-03-03T14:54:13;18.40;;;12.50;;
1382;SDS011;685;47.196;11.880;2023-03-03T14:56:56;20.47;;;14.23;;
1382;SDS011;685;47.196;11.880;2023-03-03T14:59:27;18.20;;;13.17;;
1382;SDS011;685;47.196;11.880;2023-03-03T15:02:09;19.43;;;12.77;;
1382;SDS011;685;47.196;11.880;2023-03-03T15:05:16;22.50;;;13.67;;
1382;SDS011;685;47.196;11.880;2023-03-03T15:07:46;17.60;;;12.17;;
1382;SDS011;685;47.196;11.880;2023-03-03T15:10:25;17.73;;;13.67;;
1382;SDS011;685;47.196;11.880;2023-03-03T15:13:11;24.03;;;14.10;;
1382;SDS011;685;47.196;11.880;2023-03-03T15:18:49;22.77;;;16.90;;
1382;SDS011;685;47.196;11.880;2023-03-03T15:21:25;26.27;;;17.40;;
1382;SDS011;685;47.196;11.880;2023-03-03T15:23:58;25.13;;;15.63;;
1382;SDS011;685;47.196;11.880;2023-03-03T15:26:34;25.33;;;19.37;;
1382;SDS011;685;47.196;11.880;2023-03-03T15:29:08;24.67;;;15.80;;
1382;SDS011;685;47.196;11.880;2023-03-03T15:31:43;25.97;;;16.07;;
1382;SDS011;685;47.196;11.880;2023-03-03T15:34:20;21.53;;;15.77;;
1382;SDS011;685;47.196;11.880;2023-03-03T15:36:57;22.10;;;14.27;;
1382;SDS011;685;47.196;11.880;2023-03-03T15:39:30;21.73;;;14.90;;
1382;SDS011;685;47.196;11.880;2023-03-03T15:42:06;18.30;;;14.00;;
1382;SDS011;685;47.196;11.880;2023-03-03T15:44:43;21.23;;;15.97;;
1382;SDS011;685;47.196;11.880;2023-03-03T15:47:31;20.77;;;13.80;;
1382;SDS011;685;47.196;11.880;2023-03-03T15:50:14;16.33;;;14.10;;
1382;SDS011;685;47.196;11.880;2023-03-03T15:52:50;20.20;;;15.93;;
1382;SDS011;685;47.196;11.880;2023-03-03T15:55:27;18.90;;;14.80;;
1382;SDS011;685;47.196;11.880;2023-03-03T15:58:10;20.67;;;14.33;;